Time;durP1;ratioP1;P1;durP2;ratioP2;P2;SDS_P1;SDS_P2;PMS_P1;PMS_P2;Temp;Humidity;BMP_temperature;BMP_pressure;BME280_temperature;BME280_humidity;BME280_pressure;Samples;Min_cycle;Max_cycle;Signal;HPM_P1;HPM_P2
2021/10/19 00:02:17;;;;;;;5.90;3.00;;;;;;;6.86;63.12;93709.28;2040600;70;20144;-72
2021/10/19 00:04:43;;;;;;;10.63;3.10;;;;;;;6.81;62.55;93715.81;2038496;70;20217;-82
2021/10/19 00:07:09;;;;;;;7.22;3.35;;;;;;;6.81;63.70;93718.63;2038606;70;20148;-77
2021/10/19 00:09:34;;;;;;;6.53;3.15;;;;;;;7.00;61.99;93727.34;2038654;70;20143;-77
2021/10/19 00:12:00;;;;;;;8.95;3.67;;;;;;;7.02;59.36;93724.75;2038506;70;20235;-78
2021/10/19 00:14:26;;;;;;;6.00;3.05;;;;;;;6.93;61.56;93728.13;2037664;70;20215;-70
2021/10/19 00:16:52;;;;;;;5.82;3.42;;;;;;;7.02;60.38;93738.00;2038347;70;20159;-75
2021/10/19 00:19:17;;;;;;;7.95;3.40;;;;;;;6.92;62.63;93734.25;2038340;70;20690;-70
2021/10/19 00:21:43;;;;;;;6.68;3.55;;;;;;;6.90;60.90;93731.31;2038323;70;20156;-71
2021/10/19 00:24:09;;;;;;;6.28;3.28;;;;;;;6.65;63.88;93739.53;2038320;70;20156;-75
2021/10/19 00:26:36;;;;;;;6.55;3.50;;;;;;;6.71;62.72;93732.44;2038355;70;20166;-73
2021/10/19 00:29:03;;;;;;;8.00;3.47;;;;;;;6.99;60.72;93742.66;2038491;70;20171;-76
2021/10/19 00:31:29;;;;;;;6.60;3.30;;;;;;;6.75;63.41;93740.47;2038311;70;20628;-72
2021/10/19 00:33:55;;;;;;;6.78;3.47;;;;;;;6.72;61.92;93738.78;2038582;70;20167;-78
2021/10/19 00:36:20;;;;;;;5.05;3.20;;;;;;;6.72;62.52;93744.38;2038987;70;20162;-74
2021/10/19 00:38:46;;;;;;;5.55;2.90;;;;;;;6.69;62.13;93743.47;2041247;70;20588;-75
2021/10/19 00:41:12;;;;;;;6.65;2.83;;;;;;;6.90;61.56;93742.50;2041211;70;20148;-71
2021/10/19 00:43:39;;;;;;;4.97;2.88;;;;;;;6.57;63.59;93754.28;2038892;70;20144;-76
2021/10/19 00:46:05;;;;;;;5.38;2.70;;;;;;;6.66;63.14;93747.38;2038712;70;20146;-73
2021/10/19 00:48:32;;;;;;;4.30;2.88;;;;;;;6.85;60.70;93750.53;2038699;70;20164;-72
2021/10/19 00:50:57;;;;;;;7.78;2.90;;;;;;;6.59;63.76;93748.09;2038699;70;20154;-72
2021/10/19 00:53:23;;;;;;;4.97;3.35;;;;;;;6.63;63.43;93743.63;2038134;70;20143;-77
2021/10/19 00:55:49;;;;;;;7.05;3.33;;;;;;;6.54;63.92;93733.00;2038830;70;20143;-70
2021/10/19 00:58:15;;;;;;;7.57;3.15;;;;;;;6.65;62.80;93736.75;2038678;70;20161;-73
2021/10/19 01:00:40;;;;;;;5.30;3.00;;;;;;;6.49;64.61;93733.19;2039064;70;20185;-75
2021/10/19 01:03:06;;;;;;;4.93;2.85;;;;;;;6.58;64.06;93724.97;2038951;70;20158;-78
2021/10/19 01:05:33;;;;;;;6.82;2.80;;;;;;;6.65;64.13;93723.50;2038983;70;20186;-80
2021/10/19 01:07:59;;;;;;;5.15;2.90;;;;;;;6.56;64.18;93715.66;2039063;70;20242;-75
2021/10/19 01:10:24;;;;;;;7.40;3.20;;;;;;;6.34;65.69;93708.78;2039377;70;20238;-82
2021/10/19 01:12:50;;;;;;;5.65;3.10;;;;;;;6.41;65.06;93708.00;2039056;70;20170;-82
2021/10/19 01:15:17;;;;;;;7.20;2.67;;;;;;;6.70;62.99;93702.22;2039106;70;20147;-79
2021/10/19 01:17:45;;;;;;;6.22;2.80;;;;;;;6.60;64.14;93704.84;2039116;70;20194;-79
2021/10/19 01:20:19;;;;;;;4.75;2.70;;;;;;;6.68;63.24;93707.63;2039090;70;20212;-79
2021/10/19 01:22:44;;;;;;;6.05;2.90;;;;;;;6.76;62.64;93709.09;2039092;70;20495;-76
2021/10/19 01:25:11;;;;;;;6.15;3.00;;;;;;;6.81;61.42;93704.63;2039023;70;20575;-72
2021/10/19 01:27:51;;;;;;;5.18;2.47;;;;;;;6.94;61.19;93704.41;2039251;70;20144;-78
2021/10/19 01:30:18;;;;;;;4.53;2.70;;;;;;;6.63;63.02;93709.31;2038439;70;20242;-73
2021/10/19 01:32:44;;;;;;;4.82;2.50;;;;;;;6.65;62.96;93706.72;2039014;70;20151;-73
2021/10/19 01:35:10;;;;;;;4.20;2.58;;;;;;;6.71;63.25;93710.06;2038849;70;20150;-75
2021/10/19 01:37:36;;;;;;;5.53;2.65;;;;;;;6.72;63.15;93711.53;2039009;70;20721;-78
2021/10/19 01:40:06;;;;;;;4.72;2.80;;;;;;;6.75;62.47;93704.09;2039001;70;20147;-75
2021/10/19 01:42:36;;;;;;;8.50;2.80;;;;;;;6.90;60.16;93708.91;2039174;70;20661;-78
2021/10/19 01:45:03;;;;;;;3.90;2.30;;;;;;;6.94;61.77;93706.47;2038950;70;20151;-76
2021/10/19 01:47:28;;;;;;;6.13;3.03;;;;;;;6.68;62.47;93711.16;2038900;70;20551;-78
2021/10/19 01:49:55;;;;;;;4.63;2.80;;;;;;;6.62;63.67;93697.38;2039097;70;20155;-75
2021/10/19 01:52:21;;;;;;;5.75;3.05;;;;;;;6.81;63.19;93691.38;2038926;70;20156;-76
2021/10/19 01:54:46;;;;;;;6.63;2.22;;;;;;;6.84;62.83;93683.91;2039056;70;20500;-74
2021/10/19 01:57:12;;;;;;;6.55;2.88;;;;;;;6.86;63.38;93687.63;2038941;70;20151;-79
2021/10/19 01:59:37;;;;;;;6.07;2.75;;;;;;;6.90;62.39;93695.66;2038414;70;20140;-72
2021/10/19 02:02:03;;;;;;;4.65;2.70;;;;;;;6.95;60.91;93691.91;2039000;70;20155;-75
2021/10/19 02:04:28;;;;;;;4.30;2.60;;;;;;;6.98;59.66;93687.25;2038846;70;20143;-76
2021/10/19 02:06:54;;;;;;;5.20;2.42;;;;;;;6.97;61.39;93680.16;2038974;70;20222;-72
2021/10/19 02:09:19;;;;;;;4.25;2.60;;;;;;;6.76;63.17;93689.53;2038890;70;20515;-76
2021/10/19 02:11:45;;;;;;;4.82;2.47;;;;;;;6.77;63.27;93688.19;2038946;70;20147;-73
2021/10/19 02:14:10;;;;;;;7.88;2.60;;;;;;;6.79;62.29;93688.41;2038933;70;20489;-75
2021/10/19 02:16:36;;;;;;;4.32;2.50;;;;;;;6.84;61.48;93689.50;2038895;70;20596;-78
2021/10/19 02:19:02;;;;;;;4.28;2.03;;;;;;;6.86;61.11;93689.69;2038778;70;20481;-74
2021/10/19 02:21:27;;;;;;;4.78;2.50;;;;;;;6.86;61.30;93679.22;2039111;70;20147;-73
2021/10/19 02:23:53;;;;;;;3.67;2.20;;;;;;;6.91;59.29;93674.00;2038950;70;20262;-72
2021/10/19 02:26:18;;;;;;;3.45;2.25;;;;;;;6.86;61.70;93676.44;2038940;70;20167;-73
2021/10/19 02:28:44;;;;;;;4.93;2.47;;;;;;;6.37;64.36;93674.09;2038870;70;20618;-76
2021/10/19 02:31:11;;;;;;;4.55;2.47;;;;;;;6.48;62.87;93670.91;2038877;70;20535;-75
2021/10/19 02:33:36;;;;;;;4.88;2.30;;;;;;;6.50;63.12;93668.28;2038344;70;20197;-75
2021/10/19 02:36:03;;;;;;;3.92;2.55;;;;;;;6.44;64.43;93662.16;2038881;70;20235;-74
2021/10/19 02:38:28;;;;;;;3.42;2.45;;;;;;;6.45;63.43;93654.50;2039095;70;20200;-81
2021/10/19 02:40:54;;;;;;;3.15;2.20;;;;;;;6.53;61.10;93664.38;2039131;70;20246;-72
2021/10/19 02:43:20;;;;;;;4.68;2.75;;;;;;;6.46;63.65;93661.56;2038886;70;20191;-75
2021/10/19 02:45:45;;;;;;;3.70;2.40;;;;;;;6.66;62.29;93673.88;2038804;70;20143;-75
2021/10/19 02:48:11;;;;;;;6.25;2.50;;;;;;;6.61;61.96;93669.97;2038748;70;20211;-72
2021/10/19 02:50:36;;;;;;;2.97;2.03;;;;;;;6.67;62.18;93673.31;2038753;70;20196;-83
2021/10/19 02:53:02;;;;;;;4.32;2.05;;;;;;;6.72;61.35;93682.81;2038463;70;20231;-74
2021/10/19 02:55:28;;;;;;;3.30;2.20;;;;;;;6.61;60.92;93679.09;2038376;70;20144;-81
2021/10/19 02:57:53;;;;;;;7.20;2.30;;;;;;;6.49;62.36;93677.25;2038633;70;20600;-79
2021/10/19 03:00:19;;;;;;;4.72;2.45;;;;;;;6.40;63.50;93672.97;2038872;70;20258;-74
2021/10/19 03:02:44;;;;;;;6.40;2.53;;;;;;;6.30;64.74;93667.19;2038930;70;20148;-79
2021/10/19 03:05:10;;;;;;;4.35;2.00;;;;;;;6.42;63.17;93666.81;2038740;70;20178;-78
2021/10/19 03:07:36;;;;;;;6.57;2.13;;;;;;;6.42;63.41;93661.97;2038837;70;20227;-79
2021/10/19 03:10:02;;;;;;;3.55;2.17;;;;;;;6.29;64.13;93659.38;2040964;70;20242;-83
2021/10/19 03:12:28;;;;;;;4.22;2.50;;;;;;;6.20;64.77;93655.06;2038812;70;20219;-78
2021/10/19 03:14:54;;;;;;;3.60;2.30;;;;;;;6.33;63.51;93657.69;2038758;70;20147;-71
2021/10/19 03:17:19;;;;;;;2.88;1.90;;;;;;;6.40;61.88;93653.38;2038801;70;20208;-75
2021/10/19 03:19:45;;;;;;;5.25;2.50;;;;;;;6.30;63.96;93652.47;2038752;70;20220;-79
2021/10/19 03:22:10;;;;;;;7.13;2.50;;;;;;;6.36;63.11;93653.00;2038982;70;20151;-77
2021/10/19 03:24:36;;;;;;;3.85;2.20;;;;;;;6.20;63.71;93659.94;2038811;70;20243;-75
2021/10/19 03:27:02;;;;;;;4.53;2.83;;;;;;;6.16;64.75;93651.16;2038800;70;20143;-76
2021/10/19 03:29:27;;;;;;;6.22;3.20;;;;;;;6.16;64.02;93646.31;2038841;70;20255;-76
2021/10/19 03:31:53;;;;;;;7.72;4.32;;;;;;;6.29;62.32;93645.38;2038738;70;20167;-75
2021/10/19 03:34:19;;;;;;;19.17;13.60;;;;;;;6.25;63.64;93647.81;2038632;70;20527;-74
2021/10/19 03:36:45;;;;;;;30.15;21.52;;;;;;;6.29;62.90;93651.72;2039054;70;20191;-76
2021/10/19 03:39:10;;;;;;;26.50;18.65;;;;;;;6.28;63.42;93627.88;2039121;70;20612;-78
2021/10/19 03:41:36;;;;;;;21.23;13.48;;;;;;;6.02;65.16;93653.41;2039147;70;20199;-77
2021/10/19 03:44:02;;;;;;;20.70;14.13;;;;;;;6.21;63.61;93655.81;2039253;70;20621;-77
2021/10/19 03:46:27;;;;;;;21.98;15.07;;;;;;;6.20;63.07;93662.72;2038990;70;20155;-81
2021/10/19 03:48:53;;;;;;;24.95;17.05;;;;;;;6.21;63.84;93653.75;2041264;70;20167;-78
2021/10/19 03:51:19;;;;;;;22.30;15.15;;;;;;;6.18;64.68;93663.25;2039513;70;20151;-74
2021/10/19 03:53:45;;;;;;;24.42;14.90;;;;;;;5.96;65.71;93669.63;2039010;70;20143;-74
2021/10/19 03:56:10;;;;;;;20.88;13.63;;;;;;;5.92;65.72;93663.66;2038288;70;20151;-71
2021/10/19 03:58:36;;;;;;;17.77;11.68;;;;;;;6.01;64.81;93661.03;2038654;70;20284;-72
2021/10/19 04:01:02;;;;;;;24.92;14.98;;;;;;;6.05;63.54;93655.81;2038708;70;20147;-74
2021/10/19 04:03:27;;;;;;;17.15;11.10;;;;;;;6.22;63.02;93660.84;2038658;70;20136;-76
2021/10/19 04:05:53;;;;;;;21.80;13.05;;;;;;;5.80;66.57;93666.75;2038590;70;20171;-75
2021/10/19 04:08:19;;;;;;;13.82;8.55;;;;;;;6.06;64.34;93662.91;2038995;70;20183;-74
2021/10/19 04:10:44;;;;;;;11.25;6.40;;;;;;;6.03;65.03;93674.44;2039169;70;20132;-76
2021/10/19 04:13:10;;;;;;;9.70;5.90;;;;;;;5.95;63.60;93665.31;2039133;70;20151;-71
2021/10/19 04:15:35;;;;;;;10.00;6.10;;;;;;;5.75;65.82;93666.94;2039075;70;20139;-75
2021/10/19 04:18:01;;;;;;;13.63;6.25;;;;;;;5.74;65.90;93663.41;2038598;70;20598;-74
2021/10/19 04:20:27;;;;;;;21.55;12.00;;;;;;;5.80;64.75;93663.22;2039067;70;20150;-80
2021/10/19 04:22:52;;;;;;;22.13;13.20;;;;;;;5.97;63.82;93662.72;2039183;70;20231;-74
2021/10/19 04:25:18;;;;;;;14.45;8.35;;;;;;;5.89;65.31;93661.94;2039113;70;20604;-73
2021/10/19 04:27:44;;;;;;;13.40;8.32;;;;;;;5.72;66.81;93663.19;2039266;70;20151;-77
2021/10/19 04:30:10;;;;;;;13.35;8.55;;;;;;;5.90;65.63;93666.94;2039650;70;20156;-74
2021/10/19 04:32:35;;;;;;;16.90;9.07;;;;;;;5.95;64.85;93666.06;2039193;70;20151;-77
2021/10/19 04:35:01;;;;;;;21.50;10.45;;;;;;;5.96;65.00;93661.22;2039010;70;20150;-78
2021/10/19 04:37:26;;;;;;;18.33;11.43;;;;;;;5.96;64.96;93666.81;2039229;70;20142;-81
2021/10/19 04:39:52;;;;;;;16.10;9.60;;;;;;;5.94;64.52;93677.78;2039467;70;20176;-80
2021/10/19 04:42:17;;;;;;;13.18;8.27;;;;;;;5.92;66.17;93689.53;2038811;70;20235;-76
2021/10/19 04:44:45;;;;;;;13.65;7.93;;;;;;;5.89;63.68;93690.63;2039226;70;20542;-83
2021/10/19 04:47:11;;;;;;;18.38;10.27;;;;;;;5.89;63.91;93679.44;2038415;70;20599;-77
2021/10/19 04:49:38;;;;;;;18.70;10.45;;;;;;;5.81;65.54;93687.81;2038915;70;20159;-75
2021/10/19 04:52:04;;;;;;;18.98;11.15;;;;;;;5.74;66.65;93679.41;2039075;70;20170;-83
2021/10/19 04:54:30;;;;;;;20.02;11.30;;;;;;;5.96;65.20;93684.34;2039069;70;20175;-79
2021/10/19 04:56:55;;;;;;;18.73;9.95;;;;;;;6.00;66.03;93689.53;2039060;70;20288;-76
2021/10/19 04:59:21;;;;;;;17.20;10.57;;;;;;;6.05;66.17;93694.97;2039127;70;20591;-81
2021/10/19 05:01:46;;;;;;;16.98;9.30;;;;;;;5.81;67.18;93692.66;2039257;70;20163;-79
2021/10/19 05:04:15;;;;;;;16.65;8.73;;;;;;;5.77;68.74;93698.63;2038928;70;20159;-80
2021/10/19 05:06:42;;;;;;;16.77;8.80;;;;;;;6.10;65.67;93708.00;2039259;70;20147;-75
2021/10/19 05:09:11;;;;;;;18.98;9.70;;;;;;;6.14;66.14;93710.44;2041270;70;20155;-77
2021/10/19 05:11:37;;;;;;;19.38;9.05;;;;;;;6.24;65.54;93710.63;2039139;70;20151;-82
2021/10/19 05:14:02;;;;;;;17.67;8.55;;;;;;;6.24;66.10;93700.19;2039205;70;20150;-80
2021/10/19 05:16:28;;;;;;;17.15;9.30;;;;;;;6.31;64.41;93696.63;2039089;70;20227;-79
2021/10/19 05:18:53;;;;;;;20.60;8.52;;;;;;;5.99;66.88;93691.59;2039140;70;20603;-80
2021/10/19 05:21:20;;;;;;;13.30;8.38;;;;;;;6.09;65.52;93686.19;2039067;70;20202;-80
2021/10/19 05:23:45;;;;;;;23.50;9.18;;;;;;;6.17;65.92;93691.78;2039236;70;20591;-73
2021/10/19 05:26:13;;;;;;;32.28;9.27;;;;;;;6.39;64.21;93690.31;2039156;70;20140;-79
2021/10/19 05:28:39;;;;;;;23.35;11.05;;;;;;;6.32;65.10;93695.34;2039073;70;20163;-79
2021/10/19 05:31:04;;;;;;;39.97;19.35;;;;;;;6.33;65.70;93698.91;2039083;70;20213;-77
2021/10/19 05:33:30;;;;;;;30.58;15.60;;;;;;;6.40;65.49;93694.59;2038981;70;20147;-78
2021/10/19 05:35:56;;;;;;;56.47;30.17;;;;;;;6.25;66.26;93692.53;2038926;70;20144;-77
2021/10/19 05:38:21;;;;;;;54.08;28.05;;;;;;;6.42;65.96;93695.53;2039725;70;20144;-74
2021/10/19 05:40:47;;;;;;;47.95;23.45;;;;;;;6.47;66.37;93694.59;2040334;70;20165;-79
2021/10/19 05:43:13;;;;;;;41.97;21.92;;;;;;;6.53;65.62;93689.53;2039105;70;20162;-78
2021/10/19 05:45:38;;;;;;;40.35;21.42;;;;;;;6.62;65.31;93685.44;2039021;70;20140;-81
2021/10/19 05:48:04;;;;;;;37.70;21.77;;;;;;;6.68;65.52;93688.03;2039014;70;20155;-77
2021/10/19 05:50:31;;;;;;;47.47;24.98;;;;;;;6.71;65.80;93689.72;2038866;70;20621;-74
2021/10/19 05:52:57;;;;;;;27.02;15.93;;;;;;;6.82;64.44;93684.47;2039050;70;20211;-80
2021/10/19 05:55:22;;;;;;;29.27;16.10;;;;;;;6.91;65.17;93674.00;2038914;70;20168;-78
2021/10/19 05:57:48;;;;;;;39.97;19.77;;;;;;;6.63;66.35;93667.34;2038972;70;20234;-80
2021/10/19 06:00:14;;;;;;;26.38;13.43;;;;;;;5.90;70.34;93692.09;2039142;70;20136;-76
2021/10/19 06:02:39;;;;;;;27.08;13.73;;;;;;;6.40;66.87;93695.34;2038946;70;20148;-75
2021/10/19 06:05:05;;;;;;;24.65;12.45;;;;;;;6.69;66.30;93701.47;2038937;70;20160;-78
2021/10/19 06:07:31;;;;;;;22.75;11.23;;;;;;;6.71;66.84;93703.72;2039008;70;20158;-79
2021/10/19 06:09:57;;;;;;;33.05;16.90;;;;;;;6.84;64.05;93689.50;2038855;70;20192;-84
2021/10/19 06:12:22;;;;;;;40.70;22.90;;;;;;;6.88;65.81;93689.88;2038939;70;20492;-82
2021/10/19 06:14:48;;;;;;;40.63;19.33;;;;;;;6.97;65.37;93678.09;2039051;70;20183;-81
2021/10/19 06:17:13;;;;;;;30.05;16.90;;;;;;;7.08;64.30;93674.13;2039091;70;20172;-79
2021/10/19 06:19:39;;;;;;;32.05;17.33;;;;;;;7.12;65.53;93683.66;2038941;70;20155;-78
2021/10/19 06:22:05;;;;;;;26.17;12.45;;;;;;;6.55;68.49;93689.75;2039322;70;20176;-77
2021/10/19 06:24:31;;;;;;;25.05;12.20;;;;;;;6.91;66.58;93699.19;2039083;70;20178;-80
2021/10/19 06:26:56;;;;;;;22.35;11.27;;;;;;;7.07;66.44;93701.41;2039038;70;20242;-74
2021/10/19 06:29:22;;;;;;;19.63;10.20;;;;;;;7.26;63.01;93703.75;2039039;70;20176;-78
2021/10/19 06:31:48;;;;;;;20.33;11.48;;;;;;;7.37;65.19;93700.53;2039084;70;20243;-82
2021/10/19 06:34:13;;;;;;;25.38;13.55;;;;;;;7.45;63.78;93708.19;2038982;70;20521;-80
2021/10/19 06:36:39;;;;;;;26.80;13.55;;;;;;;7.22;65.37;93708.25;2039085;70;20615;-81
2021/10/19 06:39:05;;;;;;;25.00;12.32;;;;;;;7.40;63.67;93709.88;2039160;70;20152;-79
2021/10/19 06:41:31;;;;;;;27.30;14.40;;;;;;;7.28;67.04;93709.53;2039250;70;20155;-76
2021/10/19 06:43:58;;;;;;;25.67;14.82;;;;;;;7.50;66.89;93693.94;2039197;70;20187;-75
2021/10/19 06:46:25;;;;;;;32.83;17.27;;;;;;;7.63;61.94;93696.50;2039587;70;20251;-74
2021/10/19 06:48:51;;;;;;;37.47;20.85;;;;;;;7.42;66.64;93700.91;2039434;70;20140;-74
2021/10/19 06:51:16;;;;;;;29.98;15.68;;;;;;;7.65;65.70;93709.94;2038911;70;20150;-75
2021/10/19 06:53:42;;;;;;;26.48;14.30;;;;;;;7.81;64.49;93711.38;2039011;70;20148;-75
2021/10/19 06:56:07;;;;;;;23.52;14.70;;;;;;;7.88;64.23;93713.41;2038940;70;20183;-83
2021/10/19 06:58:33;;;;;;;28.00;15.90;;;;;;;7.98;63.72;93698.75;2041264;70;20178;-84
2021/10/19 07:01:00;;;;;;;26.40;14.07;;;;;;;8.06;64.78;93703.00;2039094;70;20143;-77
2021/10/19 07:03:26;;;;;;;25.35;13.38;;;;;;;8.13;61.10;93699.41;2039174;70;20209;-73
2021/10/19 07:05:52;;;;;;;22.35;13.63;;;;;;;7.64;66.24;93706.41;2038844;70;20583;-79
2021/10/19 07:08:19;;;;;;;32.63;16.90;;;;;;;8.08;61.55;93711.59;2039003;70;20147;-74
2021/10/19 07:10:44;;;;;;;30.15;16.85;;;;;;;8.27;64.30;93702.66;2038981;70;20156;-85
2021/10/19 07:13:10;;;;;;;26.13;14.85;;;;;;;8.29;63.12;93708.47;2039075;70;20218;-82
2021/10/19 07:15:37;;;;;;;29.55;14.65;;;;;;;8.44;61.88;93713.25;2038963;70;20148;-82
2021/10/19 07:18:07;;;;;;;25.30;14.23;;;;;;;8.50;63.99;93708.13;2038842;70;20238;-78
2021/10/19 07:20:34;;;;;;;24.63;14.07;;;;;;;8.56;59.74;93710.72;2038564;70;20162;-76
2021/10/19 07:23:00;;;;;;;26.17;14.45;;;;;;;8.65;58.81;93708.00;2039122;70;20135;-77
2021/10/19 07:25:28;;;;;;;24.85;13.57;;;;;;;8.60;61.11;93722.28;2039284;70;20152;-75
2021/10/19 07:27:57;;;;;;;23.40;12.88;;;;;;;8.74;58.64;93717.84;2039576;70;20163;-74
2021/10/19 07:30:23;;;;;;;26.63;13.80;;;;;;;8.43;63.81;93725.78;2038952;70;20175;-81
2021/10/19 07:32:48;;;;;;;25.90;13.05;;;;;;;8.58;62.71;93727.72;2038857;70;20238;-83
2021/10/19 07:35:16;;;;;;;25.30;13.05;;;;;;;8.89;60.45;93728.22;2038764;70;20513;-84
2021/10/19 07:37:42;;;;;;;18.95;10.50;;;;;;;8.80;64.97;93726.81;2039059;70;20230;-72
2021/10/19 07:40:08;;;;;;;20.38;9.38;;;;;;;8.72;63.25;93716.94;2040083;70;20148;-71
2021/10/19 07:42:37;;;;;;;18.60;9.10;;;;;;;8.91;61.69;93714.34;2040059;70;20183;-76
2021/10/19 07:45:08;;;;;;;14.30;7.38;;;;;;;9.11;62.80;93706.84;2038920;70;20597;-76
2021/10/19 07:47:42;;;;;;;16.13;7.88;;;;;;;9.05;60.41;93709.88;2038818;70;20205;-83
2021/10/19 07:50:12;;;;;;;14.07;7.03;;;;;;;9.03;63.08;93715.34;2038404;70;20136;-83
2021/10/19 07:52:38;;;;;;;12.40;6.00;;;;;;;9.27;61.23;93722.22;2038876;70;20611;-85
2021/10/19 07:55:06;;;;;;;11.88;6.18;;;;;;;9.54;59.23;93730.00;2039094;70;20179;-83
2021/10/19 07:57:31;;;;;;;14.57;6.20;;;;;;;9.70;58.25;93736.91;2041388;70;20188;-80
2021/10/19 07:59:58;;;;;;;10.15;5.60;;;;;;;9.88;61.24;93734.81;2039213;70;20140;-79
2021/10/19 08:02:23;;;;;;;10.88;6.07;;;;;;;9.71;62.34;93740.44;2039335;70;20159;-73
2021/10/19 08:04:49;;;;;;;11.55;6.60;;;;;;;9.83;61.27;93738.63;2038986;70;20531;-80
2021/10/19 08:07:14;;;;;;;13.88;6.45;;;;;;;10.08;59.78;93744.09;2039332;70;20152;-81
2021/10/19 08:09:40;;;;;;;13.52;6.80;;;;;;;10.15;60.25;93746.09;2039065;70;20144;-82
2021/10/19 08:12:05;;;;;;;12.30;6.10;;;;;;;10.17;60.29;93743.41;2038376;70;20651;-81
2021/10/19 08:14:31;;;;;;;10.80;6.07;;;;;;;10.34;59.23;93739.84;2038945;70;20159;-78
2021/10/19 08:16:56;;;;;;;11.88;5.88;;;;;;;10.40;57.90;93743.91;2038354;70;20151;-77
2021/10/19 08:19:22;;;;;;;10.10;5.65;;;;;;;10.54;58.93;93741.44;2038962;70;20143;-78
2021/10/19 08:21:47;;;;;;;11.95;6.78;;;;;;;10.67;58.68;93749.50;2039075;70;20140;-77
2021/10/19 08:24:13;;;;;;;11.48;6.32;;;;;;;10.61;57.01;93743.38;2038816;70;20619;-74
2021/10/19 08:26:40;;;;;;;13.82;8.20;;;;;;;10.63;59.89;93740.72;2039272;70;20147;-78
2021/10/19 08:29:05;;;;;;;10.88;7.47;;;;;;;10.65;60.68;93734.50;2039308;70;20223;-78
2021/10/19 08:31:32;;;;;;;12.07;7.22;;;;;;;10.49;58.65;93725.56;2038791;70;20579;-76
2021/10/19 08:33:59;;;;;;;12.13;5.88;;;;;;;10.59;60.60;93723.53;2038755;70;20148;-80
2021/10/19 08:36:25;;;;;;;9.80;5.32;;;;;;;10.52;60.67;93726.44;2038836;70;20212;-77
2021/10/19 08:38:51;;;;;;;11.85;6.75;;;;;;;10.44;59.34;93729.38;2038724;70;20626;-71
2021/10/19 08:41:18;;;;;;;11.95;7.57;;;;;;;10.54;60.14;93733.00;2038831;70;20156;-78
2021/10/19 08:43:45;;;;;;;8.50;5.53;;;;;;;10.79;59.16;93732.78;2039067;70;20155;-79
2021/10/19 08:46:12;;;;;;;11.30;5.22;;;;;;;11.08;58.36;93746.94;2038754;70;20191;-78
2021/10/19 08:48:39;;;;;;;11.40;6.25;;;;;;;11.32;58.42;93733.94;2038539;70;20615;-76
2021/10/19 08:51:05;;;;;;;14.60;8.27;;;;;;;11.27;58.21;93740.63;2038823;70;20152;-79
2021/10/19 08:53:36;;;;;;;12.80;8.20;;;;;;;11.32;58.46;93722.66;2038704;70;20179;-75
2021/10/19 08:56:03;;;;;;;14.45;7.43;;;;;;;11.48;57.37;93722.38;2039197;70;20231;-78
2021/10/19 08:58:29;;;;;;;12.25;6.60;;;;;;;11.56;56.70;93709.59;2039418;70;20156;-81
2021/10/19 09:01:03;;;;;;;10.13;6.43;;;;;;;11.83;56.29;93703.84;2039267;70;20144;-80
2021/10/19 09:03:28;;;;;;;11.27;6.10;;;;;;;11.86;56.73;93705.44;2039403;70;20246;-77
2021/10/19 09:05:54;;;;;;;11.00;6.82;;;;;;;11.80;56.31;93719.09;2039587;70;20371;-74
2021/10/19 09:08:20;;;;;;;12.38;6.68;;;;;;;12.09;56.32;93723.97;2039043;70;20239;-77
2021/10/19 09:10:47;;;;;;;10.38;6.30;;;;;;;12.13;55.61;93727.09;2039298;70;20139;-87
2021/10/19 09:13:14;;;;;;;14.82;6.68;;;;;;;12.38;55.50;93730.31;2038781;70;20203;-75
2021/10/19 09:15:43;;;;;;;10.07;5.15;;;;;;;12.43;54.74;93739.81;2039152;70;20140;-75
2021/10/19 09:18:20;;;;;;;10.30;5.45;;;;;;;12.36;54.51;93723.78;2039339;70;20152;-77
2021/10/19 09:20:52;;;;;;;10.48;5.80;;;;;;;12.38;54.16;93713.38;2039116;70;20254;-75
2021/10/19 09:23:21;;;;;;;9.90;5.22;;;;;;;12.40;53.83;93707.84;2039199;70;20151;-73
2021/10/19 09:25:49;;;;;;;7.90;4.88;;;;;;;12.38;52.87;93706.97;2039318;70;20548;-73
2021/10/19 09:28:31;;;;;;;13.45;5.05;;;;;;;12.48;51.65;93715.41;2039225;70;20616;-74
2021/10/19 09:30:58;;;;;;;8.38;4.25;;;;;;;12.58;52.23;93713.28;2039391;70;20148;-75
2021/10/19 09:33:23;;;;;;;8.52;4.72;;;;;;;12.45;52.66;93711.69;2041519;70;20600;-81
2021/10/19 09:35:51;;;;;;;10.95;4.85;;;;;;;12.44;52.92;93716.63;2038662;70;20143;-76
2021/10/19 09:38:18;;;;;;;10.70;4.30;;;;;;;12.34;52.90;93715.16;2039528;70;20143;-81
2021/10/19 09:40:52;;;;;;;11.90;3.95;;;;;;;12.06;51.89;93722.38;2039047;70;20139;-78
2021/10/19 09:43:20;;;;;;;6.80;4.18;;;;;;;12.40;52.48;93712.75;2038538;70;20154;-79
2021/10/19 09:45:50;;;;;;;7.95;3.88;;;;;;;12.42;52.89;93707.28;2039002;70;20507;-74
2021/10/19 09:48:18;;;;;;;6.60;4.25;;;;;;;12.14;52.29;93703.94;2039832;70;20178;-78
2021/10/19 09:50:45;;;;;;;7.20;4.00;;;;;;;12.20;52.53;93697.97;2039267;70;20160;-79
2021/10/19 09:53:13;;;;;;;7.32;4.10;;;;;;;12.36;52.39;93693.44;2039165;70;20630;-76
2021/10/19 09:55:41;;;;;;;7.40;4.85;;;;;;;12.47;51.54;93694.91;2038557;70;20143;-82
2021/10/19 09:58:07;;;;;;;10.18;5.10;;;;;;;12.50;52.50;93702.16;2039152;70;20527;-73
2021/10/19 10:00:33;;;;;;;9.70;4.70;;;;;;;12.50;53.43;93698.59;2038765;70;20600;-76
2021/10/19 10:03:03;;;;;;;11.80;5.05;;;;;;;12.50;54.22;93704.25;2039319;70;20148;-81
2021/10/19 10:05:39;;;;;;;7.90;4.18;;;;;;;12.54;54.56;93713.75;2038457;70;20160;-76
2021/10/19 10:08:08;;;;;;;11.70;5.28;;;;;;;12.54;52.89;93718.66;2039747;70;20612;-72
2021/10/19 10:10:34;;;;;;;12.05;6.30;;;;;;;12.50;52.66;93707.06;2041330;70;20171;-72
2021/10/19 10:13:05;;;;;;;9.75;6.50;;;;;;;12.50;52.59;93712.72;2041645;70;20600;-75
2021/10/19 10:15:34;;;;;;;11.85;6.40;;;;;;;12.59;52.55;93717.59;2039483;70;20163;-80
2021/10/19 10:18:03;;;;;;;16.02;6.13;;;;;;;12.45;52.22;93706.78;2038625;70;20155;-83
2021/10/19 10:20:38;;;;;;;11.52;6.35;;;;;;;12.59;53.18;93703.47;2039004;70;20147;-82
2021/10/19 10:23:15;;;;;;;15.07;6.10;;;;;;;12.51;53.57;93705.72;2039191;70;20627;-78
2021/10/19 10:25:41;;;;;;;8.13;4.80;;;;;;;12.26;54.59;93706.13;2039062;70;20227;-76
2021/10/19 10:28:12;;;;;;;8.40;4.90;;;;;;;12.46;53.79;93697.00;2039061;70;20148;-76
2021/10/19 10:30:38;;;;;;;6.53;4.50;;;;;;;12.50;54.08;93696.53;2039044;70;20148;-72
2021/10/19 10:33:06;;;;;;;9.10;4.70;;;;;;;12.65;53.98;93684.13;2039024;70;20182;-81
2021/10/19 10:35:31;;;;;;;7.38;4.82;;;;;;;12.54;53.15;93696.81;2041164;70;20669;-75
2021/10/19 10:37:57;;;;;;;10.23;4.93;;;;;;;12.46;53.70;93699.81;2039185;70;20136;-86
2021/10/19 10:40:35;;;;;;;8.18;4.65;;;;;;;12.57;52.50;93697.69;2039356;70;20494;-76
2021/10/19 10:43:17;;;;;;;8.30;4.80;;;;;;;12.69;52.75;93696.47;2039406;70;20166;-82
2021/10/19 10:45:43;;;;;;;8.27;4.40;;;;;;;12.68;52.48;93683.66;2039146;70;20148;-74
2021/10/19 10:48:09;;;;;;;7.60;4.15;;;;;;;12.66;53.38;93677.13;2040383;70;20128;-74
2021/10/19 10:50:38;;;;;;;10.18;4.60;;;;;;;12.60;52.67;93676.69;2040649;70;20156;-73
2021/10/19 10:53:07;;;;;;;8.75;5.32;;;;;;;12.54;53.43;93674.22;2041091;70;20267;-75
2021/10/19 10:55:37;;;;;;;11.43;5.38;;;;;;;12.58;52.58;93677.31;2039377;70;20152;-78
2021/10/19 10:58:02;;;;;;;8.82;4.88;;;;;;;12.56;53.29;93682.09;2038696;70;20223;-76
2021/10/19 11:00:28;;;;;;;7.38;4.82;;;;;;;12.76;53.09;93675.00;2039098;70;20151;-86
2021/10/19 11:03:12;;;;;;;13.70;7.38;;;;;;;12.77;52.82;93670.09;2039002;70;20163;-81
2021/10/19 11:05:52;;;;;;;12.07;6.45;;;;;;;12.81;52.42;93665.44;2038692;70;20160;-77
2021/10/19 11:08:22;;;;;;;9.95;5.82;;;;;;;12.81;52.75;93659.81;2038894;70;20644;-78
2021/10/19 11:11:10;;;;;;;8.68;5.82;;;;;;;12.89;52.73;93653.97;2038750;70;20205;-81
2021/10/19 11:14:02;;;;;;;16.95;7.43;;;;;;;12.90;52.44;93644.88;2038962;70;20207;-74
2021/10/19 11:16:27;;;;;;;10.60;7.22;;;;;;;13.06;52.59;93650.88;2038963;70;20139;-81
2021/10/19 11:18:53;;;;;;;13.75;7.30;;;;;;;13.07;52.70;93649.53;2038721;70;20535;-84
2021/10/19 11:21:19;;;;;;;16.05;7.05;;;;;;;13.01;52.48;93642.72;2037750;70;20190;-77
2021/10/19 11:23:46;;;;;;;14.20;7.90;;;;;;;13.05;53.07;93638.06;2043792;70;20278;-73
2021/10/19 11:26:12;;;;;;;9.90;6.07;;;;;;;13.05;52.21;93643.00;2041867;70;20214;-84
2021/10/19 11:28:41;;;;;;;12.23;6.40;;;;;;;13.22;52.14;93640.66;2045304;70;20190;-74
2021/10/19 11:31:07;;;;;;;12.05;7.22;;;;;;;13.06;52.54;93647.31;2044723;70;20135;-74